sensor_id;sensor_type;location;lat;lon;timestamp;pressure;altitude;pressure_sealevel;temperature;humidity
39949;BME280;29070;48.102;-1.652;2023-01-30T00:02:20;102631.69;;;5.55;70.62
39949;BME280;29070;48.102;-1.652;2023-01-30T00:07:20;102620.22;;;5.58;70.52
39949;BME280;29070;48.102;-1.652;2023-01-30T00:12:20;102633.22;;;5.58;70.54
39949;BME280;29070;48.102;-1.652;2023-01-30T00:17:21;102636.81;;;5.57;70.61
39949;BME280;29070;48.102;-1.652;2023-01-30T00:22:21;102617.00;;;5.54;70.54
39949;BME280;29070;48.102;-1.652;2023-01-30T00:27:22;102617.59;;;5.46;70.55
39949;BME280;29070;48.102;-1.652;2023-01-30T00:32:22;102619.13;;;5.49;70.72
39949;BME280;29070;48.102;-1.652;2023-01-30T00:37:25;102611.91;;;5.52;70.85
39949;BME280;29070;48.102;-1.652;2023-01-30T00:42:25;102602.56;;;5.50;70.92
39949;BME280;29070;48.102;-1.652;2023-01-30T00:47:45;102599.03;;;5.51;71.12
39949;BME280;29070;48.102;-1.652;2023-01-30T00:52:47;102590.47;;;5.49;71.06
39949;BME280;29070;48.102;-1.652;2023-01-30T00:57:47;102591.31;;;5.49;71.23
39949;BME280;29070;48.102;-1.652;2023-01-30T01:02:48;102571.31;;;5.50;71.27
39949;BME280;29070;48.102;-1.652;2023-01-30T01:07:48;102559.81;;;5.41;71.31
39949;BME280;29070;48.102;-1.652;2023-01-30T01:12:49;102557.41;;;5.38;71.31
39949;BME280;29070;48.102;-1.652;2023-01-30T01:17:51;102557.41;;;5.38;71.54
39949;BME280;29070;48.102;-1.652;2023-01-30T01:22:55;102526.78;;;5.42;71.57
39949;BME280;29070;48.102;-1.652;2023-01-30T01:27:56;102527.84;;;5.39;71.88
39949;BME280;29070;48.102;-1.652;2023-01-30T01:32:56;102534.13;;;5.37;71.99
39949;BME280;29070;48.102;-1.652;2023-01-30T01:37:57;102535.28;;;5.32;72.19
39949;BME280;29070;48.102;-1.652;2023-01-30T01:42:57;102526.44;;;5.35;72.20
39949;BME280;29070;48.102;-1.652;2023-01-30T01:48:02;102534.25;;;5.35;72.50
39949;BME280;29070;48.102;-1.652;2023-01-30T01:53:05;102533.88;;;5.40;72.55
39949;BME280;29070;48.102;-1.652;2023-01-30T01:58:17;102536.47;;;5.40;72.81
39949;BME280;29070;48.102;-1.652;2023-01-30T02:03:21;102548.69;;;5.39;72.90
39949;BME280;29070;48.102;-1.652;2023-01-30T02:13:26;102551.16;;;5.41;72.96
39949;BME280;29070;48.102;-1.652;2023-01-30T02:18:28;102554.97;;;5.37;73.20
39949;BME280;29070;48.102;-1.652;2023-01-30T02:23:43;102551.63;;;5.34;73.62
39949;BME280;29070;48.102;-1.652;2023-01-30T02:34:34;102542.53;;;5.40;74.15
39949;BME280;29070;48.102;-1.652;2023-01-30T02:45:17;102543.09;;;5.32;74.22
39949;BME280;29070;48.102;-1.652;2023-01-30T02:50:27;102552.91;;;5.29;74.47
39949;BME280;29070;48.102;-1.652;2023-01-30T02:55:29;102543.19;;;5.31;74.45
39949;BME280;29070;48.102;-1.652;2023-01-30T03:06:14;102535.38;;;5.31;75.04
39949;BME280;29070;48.102;-1.652;2023-01-30T03:11:23;102541.34;;;5.33;74.83
39949;BME280;29070;48.102;-1.652;2023-01-30T03:16:34;102530.31;;;5.29;75.12
39949;BME280;29070;48.102;-1.652;2023-01-30T03:21:43;102532.78;;;5.31;75.36
39949;BME280;29070;48.102;-1.652;2023-01-30T03:26:53;102537.66;;;5.35;75.49
39949;BME280;29070;48.102;-1.652;2023-01-30T03:31:54;102537.88;;;5.32;75.35
39949;BME280;29070;48.102;-1.652;2023-01-30T03:36:54;102547.84;;;5.39;75.62
39949;BME280;29070;48.102;-1.652;2023-01-30T03:41:55;102535.78;;;5.38;75.90
39949;BME280;29070;48.102;-1.652;2023-01-30T03:46:55;102539.09;;;5.40;76.04
39949;BME280;29070;48.102;-1.652;2023-01-30T03:51:56;102531.16;;;5.41;76.19
39949;BME280;29070;48.102;-1.652;2023-01-30T03:56:56;102512.81;;;5.43;76.26
39949;BME280;29070;48.102;-1.652;2023-01-30T04:01:56;102505.72;;;5.45;76.46
39949;BME280;29070;48.102;-1.652;2023-01-30T04:06:57;102511.50;;;5.48;76.21
39949;BME280;29070;48.102;-1.652;2023-01-30T04:11:57;102501.31;;;5.45;76.66
39949;BME280;29070;48.102;-1.652;2023-01-30T04:16:57;102496.00;;;5.47;76.62
39949;BME280;29070;48.102;-1.652;2023-01-30T04:21:58;102501.22;;;5.47;76.66
39949;BME280;29070;48.102;-1.652;2023-01-30T04:26:58;102498.72;;;5.45;77.04
39949;BME280;29070;48.102;-1.652;2023-01-30T04:31:58;102495.53;;;5.42;77.50
39949;BME280;29070;48.102;-1.652;2023-01-30T04:36:59;102497.09;;;5.44;77.27
39949;BME280;29070;48.102;-1.652;2023-01-30T04:41:59;102496.13;;;5.45;77.45
39949;BME280;29070;48.102;-1.652;2023-01-30T04:46:59;102505.50;;;5.48;78.03
39949;BME280;29070;48.102;-1.652;2023-01-30T04:52:00;102507.13;;;5.49;78.03
39949;BME280;29070;48.102;-1.652;2023-01-30T04:57:00;102500.66;;;5.54;77.90
39949;BME280;29070;48.102;-1.652;2023-01-30T05:02:00;102506.56;;;5.57;77.99
39949;BME280;29070;48.102;-1.652;2023-01-30T05:07:01;102511.41;;;5.61;78.19
39949;BME280;29070;48.102;-1.652;2023-01-30T05:12:01;102503.69;;;5.60;78.28
39949;BME280;29070;48.102;-1.652;2023-01-30T05:17:01;102508.78;;;5.61;78.54
39949;BME280;29070;48.102;-1.652;2023-01-30T05:22:02;102507.88;;;5.62;78.65
39949;BME280;29070;48.102;-1.652;2023-01-30T05:27:02;102510.25;;;5.65;78.57
39949;BME280;29070;48.102;-1.652;2023-01-30T05:32:03;102510.69;;;5.70;78.70
39949;BME280;29070;48.102;-1.652;2023-01-30T05:37:03;102504.06;;;5.78;78.84
39949;BME280;29070;48.102;-1.652;2023-01-30T05:42:04;102497.56;;;5.83;78.95
39949;BME280;29070;48.102;-1.652;2023-01-30T05:47:04;102503.38;;;5.87;79.01
39949;BME280;29070;48.102;-1.652;2023-01-30T05:52:04;102499.91;;;5.86;79.08
39949;BME280;29070;48.102;-1.652;2023-01-30T05:57:05;102495.53;;;5.87;79.19
39949;BME280;29070;48.102;-1.652;2023-01-30T06:02:05;102497.19;;;5.88;78.98
39949;BME280;29070;48.102;-1.652;2023-01-30T06:07:06;102499.56;;;5.91;79.11
39949;BME280;29070;48.102;-1.652;2023-01-30T06:12:06;102505.47;;;5.93;79.49
39949;BME280;29070;48.102;-1.652;2023-01-30T06:17:07;102500.06;;;5.96;79.33
39949;BME280;29070;48.102;-1.652;2023-01-30T06:22:07;102507.66;;;5.99;79.53
39949;BME280;29070;48.102;-1.652;2023-01-30T06:27:07;102508.47;;;6.00;79.38
39949;BME280;29070;48.102;-1.652;2023-01-30T06:32:08;102510.25;;;5.99;79.54
39949;BME280;29070;48.102;-1.652;2023-01-30T06:37:08;102523.72;;;6.04;79.44
39949;BME280;29070;48.102;-1.652;2023-01-30T06:42:09;102531.81;;;6.01;79.98
39949;BME280;29070;48.102;-1.652;2023-01-30T06:47:09;102524.00;;;6.01;80.08
39949;BME280;29070;48.102;-1.652;2023-01-30T06:52:09;102526.34;;;6.04;79.89
39949;BME280;29070;48.102;-1.652;2023-01-30T06:57:09;102529.69;;;6.06;79.98
39949;BME280;29070;48.102;-1.652;2023-01-30T07:02:11;102529.69;;;6.06;80.15
39949;BME280;29070;48.102;-1.652;2023-01-30T07:07:12;102528.72;;;6.07;80.23
39949;BME280;29070;48.102;-1.652;2023-01-30T07:12:12;102540.81;;;6.08;80.32
39949;BME280;29070;48.102;-1.652;2023-01-30T07:17:13;102543.91;;;6.14;80.10
39949;BME280;29070;48.102;-1.652;2023-01-30T07:22:14;102552.41;;;6.16;80.62
39949;BME280;29070;48.102;-1.652;2023-01-30T07:27:15;102565.47;;;6.16;80.53
39949;BME280;29070;48.102;-1.652;2023-01-30T07:32:17;102556.06;;;6.13;80.76
39949;BME280;29070;48.102;-1.652;2023-01-30T07:37:18;102571.59;;;6.15;80.90
39949;BME280;29070;48.102;-1.652;2023-01-30T07:42:19;102571.59;;;6.15;81.09
39949;BME280;29070;48.102;-1.652;2023-01-30T07:47:19;102574.91;;;6.17;81.05
39949;BME280;29070;48.102;-1.652;2023-01-30T07:52:19;102583.09;;;6.23;80.96
39949;BME280;29070;48.102;-1.652;2023-01-30T07:57:20;102582.88;;;6.26;81.40
39949;BME280;29070;48.102;-1.652;2023-01-30T08:02:20;102593.19;;;6.28;81.20
39949;BME280;29070;48.102;-1.652;2023-01-30T08:07:20;102603.34;;;6.31;81.33
39949;BME280;29070;48.102;-1.652;2023-01-30T08:12:21;102602.31;;;6.34;81.37
39949;BME280;29070;48.102;-1.652;2023-01-30T08:17:21;102611.53;;;6.38;81.58
39949;BME280;29070;48.102;-1.652;2023-01-30T08:22:22;102613.78;;;6.42;81.54
39949;BME280;29070;48.102;-1.652;2023-01-30T08:27:22;102626.56;;;6.45;81.42
39949;BME280;29070;48.102;-1.652;2023-01-30T08:32:22;102630.72;;;6.48;81.58
39949;BME280;29070;48.102;-1.652;2023-01-30T08:37:23;102632.72;;;6.56;81.60
39949;BME280;29070;48.102;-1.652;2023-01-30T08:42:23;102621.25;;;6.58;82.08
39949;BME280;29070;48.102;-1.652;2023-01-30T08:47:24;102617.03;;;6.67;81.96
39949;BME280;29070;48.102;-1.652;2023-01-30T08:52:24;102620.69;;;6.76;82.04
39949;BME280;29070;48.102;-1.652;2023-01-30T08:57:25;102623.66;;;6.82;82.15
39949;BME280;29070;48.102;-1.652;2023-01-30T09:02:25;102641.00;;;6.83;82.06
39949;BME280;29070;48.102;-1.652;2023-01-30T09:07:25;102639.09;;;6.85;82.18
39949;BME280;29070;48.102;-1.652;2023-01-30T09:12:27;102636.66;;;6.94;82.19
39949;BME280;29070;48.102;-1.652;2023-01-30T09:17:28;102639.50;;;7.02;82.34
39949;BME280;29070;48.102;-1.652;2023-01-30T09:22:28;102628.81;;;7.05;82.52
39949;BME280;29070;48.102;-1.652;2023-01-30T09:27:29;102626.53;;;7.12;82.69
39949;BME280;29070;48.102;-1.652;2023-01-30T09:32:29;102628.88;;;7.15;82.89
39949;BME280;29070;48.102;-1.652;2023-01-30T09:37:30;102635.50;;;7.19;82.49
39949;BME280;29070;48.102;-1.652;2023-01-30T09:58:43;102642.19;;;7.65;83.11
39949;BME280;29070;48.102;-1.652;2023-01-30T10:04:00;102637.16;;;7.73;82.63
39949;BME280;29070;48.102;-1.652;2023-01-30T10:15:11;102637.72;;;7.77;82.70
39949;BME280;29070;48.102;-1.652;2023-01-30T10:25:56;102640.94;;;7.90;83.03
39949;BME280;29070;48.102;-1.652;2023-01-30T10:31:12;102644.69;;;7.97;82.68
39949;BME280;29070;48.102;-1.652;2023-01-30T10:36:15;102622.56;;;8.01;83.25
39949;BME280;29070;48.102;-1.652;2023-01-30T10:51:36;102625.94;;;8.44;83.43
39949;BME280;29070;48.102;-1.652;2023-01-30T10:56:49;102617.84;;;8.57;83.18
39949;BME280;29070;48.102;-1.652;2023-01-30T11:06:52;102614.28;;;8.68;83.39
39949;BME280;29070;48.102;-1.652;2023-01-30T11:11:54;102616.75;;;8.79;83.18
39949;BME280;29070;48.102;-1.652;2023-01-30T11:16:56;102620.34;;;8.88;83.62
39949;BME280;29070;48.102;-1.652;2023-01-30T11:22:02;102615.66;;;9.01;83.56
39949;BME280;29070;48.102;-1.652;2023-01-30T11:27:27;102612.94;;;9.12;83.53
39949;BME280;29070;48.102;-1.652;2023-01-30T11:32:28;102605.19;;;9.21;83.73
39949;BME280;29070;48.102;-1.652;2023-01-30T11:37:31;102602.69;;;9.29;83.51
39949;BME280;29070;48.102;-1.652;2023-01-30T11:42:32;102599.91;;;9.40;83.85
39949;BME280;29070;48.102;-1.652;2023-01-30T11:47:33;102589.13;;;9.53;83.84
39949;BME280;29070;48.102;-1.652;2023-01-30T11:52:35;102580.81;;;9.67;83.80
39949;BME280;29070;48.102;-1.652;2023-01-30T11:57:44;102583.81;;;9.82;83.80
39949;BME280;29070;48.102;-1.652;2023-01-30T12:02:48;102570.78;;;9.90;83.70
39949;BME280;29070;48.102;-1.652;2023-01-30T12:07:50;102566.94;;;9.95;83.76
39949;BME280;29070;48.102;-1.652;2023-01-30T12:12:57;102558.03;;;10.05;83.56
39949;BME280;29070;48.102;-1.652;2023-01-30T12:34:20;102534.88;;;10.19;83.42
39949;BME280;29070;48.102;-1.652;2023-01-30T12:55:07;102524.06;;;10.49;83.83
39949;BME280;29070;48.102;-1.652;2023-01-30T13:06:03;102516.50;;;10.64;83.42
39949;BME280;29070;48.102;-1.652;2023-01-30T13:11:18;102524.78;;;10.70;83.42
39949;BME280;29070;48.102;-1.652;2023-01-30T13:16:35;102521.81;;;10.73;83.36
39949;BME280;29070;48.102;-1.652;2023-01-30T13:21:46;102519.53;;;10.70;83.40
39949;BME280;29070;48.102;-1.652;2023-01-30T13:26:51;102511.97;;;10.75;83.42
39949;BME280;29070;48.102;-1.652;2023-01-30T13:31:55;102508.38;;;10.76;83.45
39949;BME280;29070;48.102;-1.652;2023-01-30T13:36:59;102508.31;;;10.67;84.22
39949;BME280;29070;48.102;-1.652;2023-01-30T13:42:11;102496.22;;;10.75;83.52
39949;BME280;29070;48.102;-1.652;2023-01-30T13:52:46;102499.84;;;11.00;83.81
39949;BME280;29070;48.102;-1.652;2023-01-30T13:57:55;102492.84;;;11.09;83.89
39949;BME280;29070;48.102;-1.652;2023-01-30T14:08:10;102495.84;;;11.14;83.83
39949;BME280;29070;48.102;-1.652;2023-01-30T14:13:13;102497.88;;;11.20;83.82
39949;BME280;29070;48.102;-1.652;2023-01-30T14:18:34;102494.72;;;11.16;83.97
39949;BME280;29070;48.102;-1.652;2023-01-30T14:23:38;102506.88;;;11.17;83.76
39949;BME280;29070;48.102;-1.652;2023-01-30T14:28:45;102506.72;;;11.19;83.80
39949;BME280;29070;48.102;-1.652;2023-01-30T14:33:50;102504.31;;;11.25;83.90
39949;BME280;29070;48.102;-1.652;2023-01-30T14:39:36;102500.53;;;11.28;83.90
39949;BME280;29070;48.102;-1.652;2023-01-30T14:49:57;102508.06;;;11.23;83.75
39949;BME280;29070;48.102;-1.652;2023-01-30T14:54:59;102521.38;;;11.21;83.75
39949;BME280;29070;48.102;-1.652;2023-01-30T15:00:03;102516.94;;;11.22;83.72
39949;BME280;29070;48.102;-1.652;2023-01-30T15:05:07;102520.16;;;11.16;83.83
39949;BME280;29070;48.102;-1.652;2023-01-30T15:31:33;102551.00;;;11.05;83.54
39949;BME280;29070;48.102;-1.652;2023-01-30T15:36:35;102549.63;;;11.01;83.60
39949;BME280;29070;48.102;-1.652;2023-01-30T15:41:37;102541.81;;;11.10;83.64
39949;BME280;29070;48.102;-1.652;2023-01-30T15:46:47;102560.28;;;11.18;83.64
39949;BME280;29070;48.102;-1.652;2023-01-30T15:51:53;102556.44;;;11.12;83.38
39949;BME280;29070;48.102;-1.652;2023-01-30T15:56:55;102559.25;;;11.11;83.21
39949;BME280;29070;48.102;-1.652;2023-01-30T16:02:20;102559.44;;;11.17;83.26
39949;BME280;29070;48.102;-1.652;2023-01-30T16:07:24;102566.88;;;11.22;83.08
39949;BME280;29070;48.102;-1.652;2023-01-30T16:12:27;102574.25;;;11.18;83.08
39949;BME280;29070;48.102;-1.652;2023-01-30T16:17:29;102578.97;;;11.15;82.93
39949;BME280;29070;48.102;-1.652;2023-01-30T16:22:32;102586.88;;;11.15;82.90
39949;BME280;29070;48.102;-1.652;2023-01-30T16:27:34;102593.63;;;10.99;82.62
39949;BME280;29070;48.102;-1.652;2023-01-30T16:32:36;102594.84;;;10.87;82.37
39949;BME280;29070;48.102;-1.652;2023-01-30T16:37:38;102596.72;;;10.77;82.26
39949;BME280;29070;48.102;-1.652;2023-01-30T16:42:39;102600.84;;;10.61;82.13
39949;BME280;29070;48.102;-1.652;2023-01-30T16:47:40;102610.56;;;10.51;81.94
39949;BME280;29070;48.102;-1.652;2023-01-30T16:52:45;102603.19;;;10.37;81.53
39949;BME280;29070;48.102;-1.652;2023-01-30T16:57:55;102604.31;;;10.24;81.11
39949;BME280;29070;48.102;-1.652;2023-01-30T17:03:02;102597.25;;;10.07;81.15
39949;BME280;29070;48.102;-1.652;2023-01-30T17:08:04;102613.28;;;9.94;80.94
39949;BME280;29070;48.102;-1.652;2023-01-30T17:18:33;102620.69;;;9.71;80.44
39949;BME280;29070;48.102;-1.652;2023-01-30T17:23:34;102628.03;;;9.58;80.70
39949;BME280;29070;48.102;-1.652;2023-01-30T17:28:38;102633.03;;;9.41;80.55
39949;BME280;29070;48.102;-1.652;2023-01-30T17:33:39;102632.47;;;9.28;80.71
39949;BME280;29070;48.102;-1.652;2023-01-30T17:38:40;102642.41;;;9.24;80.29
39949;BME280;29070;48.102;-1.652;2023-01-30T17:43:40;102652.47;;;9.19;80.65
39949;BME280;29070;48.102;-1.652;2023-01-30T17:48:41;102666.84;;;9.05;80.46
39949;BME280;29070;48.102;-1.652;2023-01-30T17:53:41;102664.75;;;8.99;80.76
39949;BME280;29070;48.102;-1.652;2023-01-30T17:58:42;102662.50;;;8.85;80.57
39949;BME280;29070;48.102;-1.652;2023-01-30T18:03:42;102674.50;;;8.77;80.70
39949;BME280;29070;48.102;-1.652;2023-01-30T18:08:42;102685.66;;;8.70;80.58
39949;BME280;29070;48.102;-1.652;2023-01-30T18:13:43;102692.81;;;8.68;81.02
39949;BME280;29070;48.102;-1.652;2023-01-30T18:18:46;102699.53;;;8.61;80.51
39949;BME280;29070;48.102;-1.652;2023-01-30T18:23:47;102705.69;;;8.50;80.92
39949;BME280;29070;48.102;-1.652;2023-01-30T18:28:48;102708.81;;;8.44;80.95
39949;BME280;29070;48.102;-1.652;2023-01-30T18:33:50;102715.50;;;8.36;80.82
39949;BME280;29070;48.102;-1.652;2023-01-30T18:38:52;102722.91;;;8.31;80.88
39949;BME280;29070;48.102;-1.652;2023-01-30T18:43:55;102715.16;;;8.20;80.63
39949;BME280;29070;48.102;-1.652;2023-01-30T18:48:56;102717.41;;;8.04;80.49
39949;BME280;29070;48.102;-1.652;2023-01-30T18:53:57;102728.19;;;7.89;80.39
39949;BME280;29070;48.102;-1.652;2023-01-30T18:58:59;102732.53;;;7.79;80.14
39949;BME280;29070;48.102;-1.652;2023-01-30T19:04:05;102734.63;;;7.64;79.84
39949;BME280;29070;48.102;-1.652;2023-01-30T19:09:07;102739.50;;;7.57;80.38
39949;BME280;29070;48.102;-1.652;2023-01-30T19:14:11;102749.31;;;7.44;80.28
39949;BME280;29070;48.102;-1.652;2023-01-30T19:19:13;102758.13;;;7.32;80.26
39949;BME280;29070;48.102;-1.652;2023-01-30T19:24:15;102755.28;;;7.23;80.37
39949;BME280;29070;48.102;-1.652;2023-01-30T19:29:16;102757.44;;;7.18;79.95
39949;BME280;29070;48.102;-1.652;2023-01-30T19:34:17;102761.97;;;7.16;80.70
39949;BME280;29070;48.102;-1.652;2023-01-30T19:39:17;102771.31;;;7.19;80.69
39949;BME280;29070;48.102;-1.652;2023-01-30T19:44:18;102758.25;;;7.19;80.72
39949;BME280;29070;48.102;-1.652;2023-01-30T19:49:18;102758.13;;;7.20;80.91
39949;BME280;29070;48.102;-1.652;2023-01-30T19:54:19;102770.50;;;7.18;80.74
39949;BME280;29070;48.102;-1.652;2023-01-30T19:59:19;102764.69;;;7.15;81.07
39949;BME280;29070;48.102;-1.652;2023-01-30T20:04:19;102775.25;;;7.13;81.33
39949;BME280;29070;48.102;-1.652;2023-01-30T20:09:20;102777.75;;;7.15;81.28
39949;BME280;29070;48.102;-1.652;2023-01-30T20:14:20;102776.22;;;7.12;81.38
39949;BME280;29070;48.102;-1.652;2023-01-30T20:19:21;102778.34;;;7.07;81.20
39949;BME280;29070;48.102;-1.652;2023-01-30T20:24:21;102773.38;;;7.04;81.50
39949;BME280;29070;48.102;-1.652;2023-01-30T20:29:21;102775.03;;;7.05;81.43
39949;BME280;29070;48.102;-1.652;2023-01-30T20:34:22;102782.50;;;7.10;81.63
39949;BME280;29070;48.102;-1.652;2023-01-30T20:39:22;102799.34;;;7.17;82.02
39949;BME280;29070;48.102;-1.652;2023-01-30T20:44:22;102799.94;;;7.20;82.06
39949;BME280;29070;48.102;-1.652;2023-01-30T20:49:23;102801.38;;;7.24;82.19
39949;BME280;29070;48.102;-1.652;2023-01-30T20:54:23;102784.38;;;7.30;82.16
39949;BME280;29070;48.102;-1.652;2023-01-30T20:59:24;102784.97;;;7.34;82.41
39949;BME280;29070;48.102;-1.652;2023-01-30T21:04:26;102799.44;;;7.38;82.29
39949;BME280;29070;48.102;-1.652;2023-01-30T21:09:26;102803.72;;;7.39;82.23
39949;BME280;29070;48.102;-1.652;2023-01-30T21:14:26;102817.47;;;7.41;82.31
39949;BME280;29070;48.102;-1.652;2023-01-30T21:19:28;102812.03;;;7.44;82.50
39949;BME280;29070;48.102;-1.652;2023-01-30T21:24:28;102816.97;;;7.47;82.83
39949;BME280;29070;48.102;-1.652;2023-01-30T21:29:28;102809.13;;;7.47;82.78
39949;BME280;29070;48.102;-1.652;2023-01-30T21:34:29;102819.34;;;7.50;82.50
39949;BME280;29070;48.102;-1.652;2023-01-30T21:39:29;102813.19;;;7.51;82.87
39949;BME280;29070;48.102;-1.652;2023-01-30T21:44:48;102809.59;;;7.52;82.91
39949;BME280;29070;48.102;-1.652;2023-01-30T21:49:52;102805.09;;;7.54;82.84
39949;BME280;29070;48.102;-1.652;2023-01-30T21:54:52;102799.75;;;7.56;82.90
39949;BME280;29070;48.102;-1.652;2023-01-30T21:59:53;102799.75;;;7.56;82.42
39949;BME280;29070;48.102;-1.652;2023-01-30T22:04:53;102816.97;;;7.58;82.43
39949;BME280;29070;48.102;-1.652;2023-01-30T22:09:54;102810.06;;;7.57;82.74
39949;BME280;29070;48.102;-1.652;2023-01-30T22:14:54;102819.81;;;7.55;82.04
39949;BME280;29070;48.102;-1.652;2023-01-30T22:19:55;102811.88;;;7.57;81.99
39949;BME280;29070;48.102;-1.652;2023-01-30T22:24:55;102806.63;;;7.57;82.36
39949;BME280;29070;48.102;-1.652;2023-01-30T22:29:55;102795.59;;;7.53;82.06
39949;BME280;29070;48.102;-1.652;2023-01-30T22:34:56;102807.69;;;7.54;81.94
39949;BME280;29070;48.102;-1.652;2023-01-30T22:39:56;102806.75;;;7.55;81.89
39949;BME280;29070;48.102;-1.652;2023-01-30T22:44:56;102809.13;;;7.47;81.65
39949;BME280;29070;48.102;-1.652;2023-01-30T22:49:57;102807.63;;;7.44;81.25
39949;BME280;29070;48.102;-1.652;2023-01-30T22:54:57;102815.47;;;7.44;80.83
39949;BME280;29070;48.102;-1.652;2023-01-30T22:59:57;102821.75;;;7.42;81.12
39949;BME280;29070;48.102;-1.652;2023-01-30T23:04:58;102816.16;;;7.47;80.80
39949;BME280;29070;48.102;-1.652;2023-01-30T23:09:58;102815.34;;;7.46;80.97
39949;BME280;29070;48.102;-1.652;2023-01-30T23:14:59;102810.34;;;7.43;80.72
39949;BME280;29070;48.102;-1.652;2023-01-30T23:19:59;102815.94;;;7.38;80.99
39949;BME280;29070;48.102;-1.652;2023-01-30T23:24:59;102814.50;;;7.34;80.83
39949;BME280;29070;48.102;-1.652;2023-01-30T23:30:00;102816.31;;;7.34;80.58
39949;BME280;29070;48.102;-1.652;2023-01-30T23:35:00;102813.34;;;7.27;80.49
39949;BME280;29070;48.102;-1.652;2023-01-30T23:40:00;102813.97;;;7.19;80.35
39949;BME280;29070;48.102;-1.652;2023-01-30T23:45:01;102807.28;;;7.15;79.87
39949;BME280;29070;48.102;-1.652;2023-01-30T23:50:01;102818.94;;;7.11;80.10
39949;BME280;29070;48.102;-1.652;2023-01-30T23:55:02;102807.56;;;7.12;79.74
